KLBB METAR and TAF | Updated Today

KLBB METAR

Lubbock Preston Smith International Airport

Observation time: 47 min. ago

KLBB 302053Z 16010KT 10SM SCT220 BKN250 04/M08 A3032 RMK AO2 SLP278 T00441083 56023

Need help? Read our tutorial on how to read METARs or read the parsed version below.

Lubbock Preston Smith International Airport (KLBB) METAR

  • Weather conditions on Wed, 30 Nov 2022 20:53:00 +0000 (47 min. ago):
  • Present conditions: Dry
  • Clouds: Scattered at 6706 meters; broken sky at 7620 meters
  • Visibility: 16093 meters
  • Wind: 160 degrees at 10 knots
  • Temperature: 4 celsius
  • Dew point: -8 celsius
  • Pressure: 30.32 inHg
  • Remarks: AO2 SLP278 T00441083 56023


Useful to know...

KLBB TAF

Lubbock Preston Smith International Airport

KLBB 301727Z 3018/0118 03008KT P6SM SKC FM011700 20011KT P6SM BKN250
Observation time: 4:13 hr. ago
Need help? Read our tutorial on how to read TAFs or read the parsed version below.

Parsed version of TAF for Lubbock Preston Smith International Airport (KLBB)

  • From 30 November at 18:00 UTC, to day 01 of the month at 18:00 UTC
  • Clouds: No significant changes expected
  • Wind: 30 degrees at 8
  • From day 1 of the month at 17:00 UTC
  • Clouds: Broken sky at 7620 meters
  • Wind: 200 degrees at 11

Airports near KLBB

KPVW Weather
Region: Plainview

Hale County Airport

Not found in our database